sensor_id;sensor_type;location;lat;lon;timestamp;P1;durP1;ratioP1;P2;durP2;ratioP2
10945;SDS011;5525;42.648;23.368;2023-02-10T00:00:31;23.05;;;11.30;;
10945;SDS011;5525;42.648;23.368;2023-02-10T00:02:57;24.50;;;12.15;;
10945;SDS011;5525;42.648;23.368;2023-02-10T00:05:24;24.30;;;12.23;;
10945;SDS011;5525;42.648;23.368;2023-02-10T00:07:51;23.13;;;12.13;;
10945;SDS011;5525;42.648;23.368;2023-02-10T00:10:19;22.33;;;12.30;;
10945;SDS011;5525;42.648;23.368;2023-02-10T00:12:45;21.75;;;10.63;;
10945;SDS011;5525;42.648;23.368;2023-02-10T00:15:12;17.83;;;10.32;;
10945;SDS011;5525;42.648;23.368;2023-02-10T00:17:39;22.33;;;11.05;;
10945;SDS011;5525;42.648;23.368;2023-02-10T00:20:06;23.73;;;12.93;;
10945;SDS011;5525;42.648;23.368;2023-02-10T00:22:33;22.65;;;12.60;;
10945;SDS011;5525;42.648;23.368;2023-02-10T00:25:00;25.17;;;12.68;;
10945;SDS011;5525;42.648;23.368;2023-02-10T00:27:28;26.52;;;12.57;;
10945;SDS011;5525;42.648;23.368;2023-02-10T00:29:55;23.80;;;12.50;;
10945;SDS011;5525;42.648;23.368;2023-02-10T00:32:22;20.42;;;10.57;;
10945;SDS011;5525;42.648;23.368;2023-02-10T00:34:49;21.30;;;11.20;;
10945;SDS011;5525;42.648;23.368;2023-02-10T00:37:15;19.92;;;11.70;;
10945;SDS011;5525;42.648;23.368;2023-02-10T00:39:42;23.60;;;12.13;;
10945;SDS011;5525;42.648;23.368;2023-02-10T00:42:10;26.10;;;12.05;;
10945;SDS011;5525;42.648;23.368;2023-02-10T00:44:38;22.23;;;10.65;;
10945;SDS011;5525;42.648;23.368;2023-02-10T00:47:05;16.88;;;9.85;;
10945;SDS011;5525;42.648;23.368;2023-02-10T00:49:32;20.60;;;10.55;;
10945;SDS011;5525;42.648;23.368;2023-02-10T00:51:58;20.05;;;10.40;;
10945;SDS011;5525;42.648;23.368;2023-02-10T00:54:25;17.92;;;9.35;;
10945;SDS011;5525;42.648;23.368;2023-02-10T00:56:52;17.98;;;9.70;;
10945;SDS011;5525;42.648;23.368;2023-02-10T00:59:18;17.63;;;9.45;;
10945;SDS011;5525;42.648;23.368;2023-02-10T01:01:47;16.20;;;8.35;;
10945;SDS011;5525;42.648;23.368;2023-02-10T01:04:14;15.02;;;8.95;;
10945;SDS011;5525;42.648;23.368;2023-02-10T01:06:40;14.18;;;7.68;;
10945;SDS011;5525;42.648;23.368;2023-02-10T01:09:08;14.85;;;8.20;;
10945;SDS011;5525;42.648;23.368;2023-02-10T01:11:35;13.48;;;7.72;;
10945;SDS011;5525;42.648;23.368;2023-02-10T01:14:03;12.45;;;7.63;;
10945;SDS011;5525;42.648;23.368;2023-02-10T01:16:30;12.98;;;7.40;;
10945;SDS011;5525;42.648;23.368;2023-02-10T01:18:58;14.82;;;7.90;;
10945;SDS011;5525;42.648;23.368;2023-02-10T01:21:26;16.30;;;7.88;;
10945;SDS011;5525;42.648;23.368;2023-02-10T01:23:53;16.30;;;7.97;;
10945;SDS011;5525;42.648;23.368;2023-02-10T01:26:19;12.68;;;7.45;;
10945;SDS011;5525;42.648;23.368;2023-02-10T01:28:46;13.20;;;7.55;;
10945;SDS011;5525;42.648;23.368;2023-02-10T01:31:14;13.73;;;7.70;;
10945;SDS011;5525;42.648;23.368;2023-02-10T01:33:43;14.52;;;7.68;;
10945;SDS011;5525;42.648;23.368;2023-02-10T01:36:12;15.38;;;7.93;;
10945;SDS011;5525;42.648;23.368;2023-02-10T01:38:40;17.02;;;8.35;;
10945;SDS011;5525;42.648;23.368;2023-02-10T01:41:08;15.02;;;7.88;;
10945;SDS011;5525;42.648;23.368;2023-02-10T01:46:25;15.07;;;7.53;;
10945;SDS011;5525;42.648;23.368;2023-02-10T01:48:53;15.40;;;6.80;;
10945;SDS011;5525;42.648;23.368;2023-02-10T01:51:24;13.15;;;7.07;;
10945;SDS011;5525;42.648;23.368;2023-02-10T01:53:56;11.02;;;6.72;;
10945;SDS011;5525;42.648;23.368;2023-02-10T01:56:24;12.95;;;7.05;;
10945;SDS011;5525;42.648;23.368;2023-02-10T01:58:51;12.48;;;6.65;;
10945;SDS011;5525;42.648;23.368;2023-02-10T02:01:17;15.20;;;7.00;;
10945;SDS011;5525;42.648;23.368;2023-02-10T02:03:44;13.00;;;7.03;;
10945;SDS011;5525;42.648;23.368;2023-02-10T02:06:11;14.10;;;6.88;;
10945;SDS011;5525;42.648;23.368;2023-02-10T02:08:39;12.50;;;6.60;;
10945;SDS011;5525;42.648;23.368;2023-02-10T02:11:16;11.02;;;6.63;;
10945;SDS011;5525;42.648;23.368;2023-02-10T02:13:57;10.77;;;6.13;;
10945;SDS011;5525;42.648;23.368;2023-02-10T02:16:37;11.18;;;6.18;;
10945;SDS011;5525;42.648;23.368;2023-02-10T02:19:19;11.63;;;6.63;;
10945;SDS011;5525;42.648;23.368;2023-02-10T02:22:21;12.95;;;6.90;;
10945;SDS011;5525;42.648;23.368;2023-02-10T02:25:15;12.95;;;6.57;;
10945;SDS011;5525;42.648;23.368;2023-02-10T02:27:58;12.02;;;6.78;;
10945;SDS011;5525;42.648;23.368;2023-02-10T02:30:44;13.82;;;6.72;;
10945;SDS011;5525;42.648;23.368;2023-02-10T02:33:21;12.77;;;7.13;;
10945;SDS011;5525;42.648;23.368;2023-02-10T02:35:52;11.00;;;6.13;;
10945;SDS011;5525;42.648;23.368;2023-02-10T02:38:23;13.82;;;7.28;;
10945;SDS011;5525;42.648;23.368;2023-02-10T02:40:50;13.75;;;6.72;;
10945;SDS011;5525;42.648;23.368;2023-02-10T02:43:17;13.00;;;7.55;;
10945;SDS011;5525;42.648;23.368;2023-02-10T02:45:46;12.27;;;7.00;;
10945;SDS011;5525;42.648;23.368;2023-02-10T02:48:29;17.08;;;8.95;;
10945;SDS011;5525;42.648;23.368;2023-02-10T02:51:08;13.70;;;8.20;;
10945;SDS011;5525;42.648;23.368;2023-02-10T02:53:42;12.02;;;6.85;;
10945;SDS011;5525;42.648;23.368;2023-02-10T02:56:18;14.57;;;7.75;;
10945;SDS011;5525;42.648;23.368;2023-02-10T02:58:51;14.43;;;7.35;;
10945;SDS011;5525;42.648;23.368;2023-02-10T03:01:23;13.23;;;7.47;;
10945;SDS011;5525;42.648;23.368;2023-02-10T03:03:57;19.38;;;8.52;;
10945;SDS011;5525;42.648;23.368;2023-02-10T03:06:24;13.65;;;7.25;;
10945;SDS011;5525;42.648;23.368;2023-02-10T03:08:51;11.63;;;7.30;;
10945;SDS011;5525;42.648;23.368;2023-02-10T03:11:18;17.90;;;8.82;;
10945;SDS011;5525;42.648;23.368;2023-02-10T03:13:45;17.65;;;9.18;;
10945;SDS011;5525;42.648;23.368;2023-02-10T03:16:12;17.60;;;10.48;;
10945;SDS011;5525;42.648;23.368;2023-02-10T03:18:39;20.58;;;10.02;;
10945;SDS011;5525;42.648;23.368;2023-02-10T03:21:07;21.77;;;11.02;;
10945;SDS011;5525;42.648;23.368;2023-02-10T03:23:33;26.63;;;13.48;;
10945;SDS011;5525;42.648;23.368;2023-02-10T03:26:00;31.05;;;15.68;;
10945;SDS011;5525;42.648;23.368;2023-02-10T03:28:27;32.00;;;16.35;;
10945;SDS011;5525;42.648;23.368;2023-02-10T03:30:54;35.35;;;17.10;;
10945;SDS011;5525;42.648;23.368;2023-02-10T03:33:21;34.67;;;17.95;;
10945;SDS011;5525;42.648;23.368;2023-02-10T03:35:48;36.40;;;18.35;;
10945;SDS011;5525;42.648;23.368;2023-02-10T03:38:17;36.55;;;18.48;;
10945;SDS011;5525;42.648;23.368;2023-02-10T03:40:44;38.45;;;18.67;;
10945;SDS011;5525;42.648;23.368;2023-02-10T03:43:10;35.20;;;18.33;;
10945;SDS011;5525;42.648;23.368;2023-02-10T03:45:38;34.60;;;18.02;;
10945;SDS011;5525;42.648;23.368;2023-02-10T03:48:05;39.22;;;18.20;;
10945;SDS011;5525;42.648;23.368;2023-02-10T03:50:32;33.95;;;18.63;;
10945;SDS011;5525;42.648;23.368;2023-02-10T03:52:58;32.75;;;17.65;;
10945;SDS011;5525;42.648;23.368;2023-02-10T03:55:27;38.03;;;17.88;;
10945;SDS011;5525;42.648;23.368;2023-02-10T03:57:54;39.38;;;18.05;;
10945;SDS011;5525;42.648;23.368;2023-02-10T04:00:20;35.67;;;17.67;;
10945;SDS011;5525;42.648;23.368;2023-02-10T04:02:48;37.72;;;19.92;;
10945;SDS011;5525;42.648;23.368;2023-02-10T04:05:15;40.30;;;20.20;;
10945;SDS011;5525;42.648;23.368;2023-02-10T04:07:42;45.83;;;20.17;;
10945;SDS011;5525;42.648;23.368;2023-02-10T04:10:08;42.70;;;21.42;;
10945;SDS011;5525;42.648;23.368;2023-02-10T04:12:37;38.13;;;19.85;;
10945;SDS011;5525;42.648;23.368;2023-02-10T04:15:04;42.05;;;20.67;;
10945;SDS011;5525;42.648;23.368;2023-02-10T04:17:31;39.40;;;19.90;;
10945;SDS011;5525;42.648;23.368;2023-02-10T04:19:59;43.25;;;19.20;;
10945;SDS011;5525;42.648;23.368;2023-02-10T04:22:25;38.00;;;18.75;;
10945;SDS011;5525;42.648;23.368;2023-02-10T04:24:52;41.25;;;19.50;;
10945;SDS011;5525;42.648;23.368;2023-02-10T04:27:19;35.20;;;18.17;;
10945;SDS011;5525;42.648;23.368;2023-02-10T04:29:47;36.60;;;19.00;;
10945;SDS011;5525;42.648;23.368;2023-02-10T04:32:14;34.55;;;19.05;;
10945;SDS011;5525;42.648;23.368;2023-02-10T04:34:40;35.92;;;18.77;;
10945;SDS011;5525;42.648;23.368;2023-02-10T04:37:07;41.55;;;20.50;;
10945;SDS011;5525;42.648;23.368;2023-02-10T04:39:34;40.45;;;18.80;;
10945;SDS011;5525;42.648;23.368;2023-02-10T04:42:01;40.40;;;19.77;;
10945;SDS011;5525;42.648;23.368;2023-02-10T04:44:28;36.85;;;18.42;;
10945;SDS011;5525;42.648;23.368;2023-02-10T04:46:56;37.65;;;20.48;;
10945;SDS011;5525;42.648;23.368;2023-02-10T04:49:23;39.08;;;18.65;;
10945;SDS011;5525;42.648;23.368;2023-02-10T04:51:50;40.83;;;20.50;;
10945;SDS011;5525;42.648;23.368;2023-02-10T04:54:17;42.65;;;19.38;;
10945;SDS011;5525;42.648;23.368;2023-02-10T04:56:44;38.67;;;20.60;;
10945;SDS011;5525;42.648;23.368;2023-02-10T04:59:11;37.13;;;19.38;;
10945;SDS011;5525;42.648;23.368;2023-02-10T05:01:38;41.72;;;18.75;;
10945;SDS011;5525;42.648;23.368;2023-02-10T05:04:06;37.10;;;18.90;;
10945;SDS011;5525;42.648;23.368;2023-02-10T05:06:33;33.50;;;18.90;;
10945;SDS011;5525;42.648;23.368;2023-02-10T05:09:00;34.63;;;17.90;;
10945;SDS011;5525;42.648;23.368;2023-02-10T05:11:27;38.25;;;18.77;;
10945;SDS011;5525;42.648;23.368;2023-02-10T05:13:53;33.30;;;18.60;;
10945;SDS011;5525;42.648;23.368;2023-02-10T05:16:20;38.00;;;18.77;;
10945;SDS011;5525;42.648;23.368;2023-02-10T05:18:47;36.58;;;19.27;;
10945;SDS011;5525;42.648;23.368;2023-02-10T05:21:15;32.67;;;18.40;;
10945;SDS011;5525;42.648;23.368;2023-02-10T05:23:42;34.92;;;18.83;;
10945;SDS011;5525;42.648;23.368;2023-02-10T05:26:08;35.33;;;17.60;;
10945;SDS011;5525;42.648;23.368;2023-02-10T05:28:35;32.67;;;17.25;;
10945;SDS011;5525;42.648;23.368;2023-02-10T05:31:02;37.88;;;18.92;;
10945;SDS011;5525;42.648;23.368;2023-02-10T05:33:31;37.78;;;18.33;;
10945;SDS011;5525;42.648;23.368;2023-02-10T05:35:59;36.25;;;16.90;;
10945;SDS011;5525;42.648;23.368;2023-02-10T05:38:27;33.13;;;17.63;;
10945;SDS011;5525;42.648;23.368;2023-02-10T05:40:54;37.38;;;18.88;;
10945;SDS011;5525;42.648;23.368;2023-02-10T05:43:20;38.72;;;18.65;;
10945;SDS011;5525;42.648;23.368;2023-02-10T05:45:47;36.42;;;18.40;;
10945;SDS011;5525;42.648;23.368;2023-02-10T05:48:14;40.95;;;20.02;;
10945;SDS011;5525;42.648;23.368;2023-02-10T05:50:40;41.58;;;20.75;;
10945;SDS011;5525;42.648;23.368;2023-02-10T05:53:07;43.10;;;20.33;;
10945;SDS011;5525;42.648;23.368;2023-02-10T05:55:36;38.05;;;19.48;;
10945;SDS011;5525;42.648;23.368;2023-02-10T05:58:02;37.25;;;19.15;;
10945;SDS011;5525;42.648;23.368;2023-02-10T06:00:29;42.65;;;21.48;;
10945;SDS011;5525;42.648;23.368;2023-02-10T06:02:56;44.30;;;21.17;;
10945;SDS011;5525;42.648;23.368;2023-02-10T06:05:23;39.15;;;17.55;;
10945;SDS011;5525;42.648;23.368;2023-02-10T06:07:49;40.13;;;19.40;;
10945;SDS011;5525;42.648;23.368;2023-02-10T06:10:16;37.72;;;19.48;;
10945;SDS011;5525;42.648;23.368;2023-02-10T06:12:44;38.78;;;19.20;;
10945;SDS011;5525;42.648;23.368;2023-02-10T06:15:11;38.72;;;19.70;;
10945;SDS011;5525;42.648;23.368;2023-02-10T06:17:38;35.80;;;18.85;;
10945;SDS011;5525;42.648;23.368;2023-02-10T06:20:05;40.40;;;20.15;;
10945;SDS011;5525;42.648;23.368;2023-02-10T06:22:32;37.60;;;19.15;;
10945;SDS011;5525;42.648;23.368;2023-02-10T06:24:58;43.65;;;21.60;;
10945;SDS011;5525;42.648;23.368;2023-02-10T06:27:25;41.42;;;20.48;;
10945;SDS011;5525;42.648;23.368;2023-02-10T06:29:53;38.33;;;19.27;;
10945;SDS011;5525;42.648;23.368;2023-02-10T06:32:20;38.78;;;19.33;;
10945;SDS011;5525;42.648;23.368;2023-02-10T06:34:47;42.53;;;19.98;;
10945;SDS011;5525;42.648;23.368;2023-02-10T06:37:14;43.78;;;21.13;;
10945;SDS011;5525;42.648;23.368;2023-02-10T06:39:41;40.15;;;21.05;;
10945;SDS011;5525;42.648;23.368;2023-02-10T06:42:07;44.88;;;22.55;;
10945;SDS011;5525;42.648;23.368;2023-02-10T06:44:34;40.45;;;21.52;;
10945;SDS011;5525;42.648;23.368;2023-02-10T06:47:02;41.13;;;20.25;;
10945;SDS011;5525;42.648;23.368;2023-02-10T06:49:29;41.25;;;19.33;;
10945;SDS011;5525;42.648;23.368;2023-02-10T06:51:56;38.97;;;18.63;;
10945;SDS011;5525;42.648;23.368;2023-02-10T06:54:22;36.65;;;19.20;;
10945;SDS011;5525;42.648;23.368;2023-02-10T06:56:49;36.22;;;18.23;;
10945;SDS011;5525;42.648;23.368;2023-02-10T06:59:16;35.67;;;17.70;;
10945;SDS011;5525;42.648;23.368;2023-02-10T07:01:43;34.90;;;18.65;;
10945;SDS011;5525;42.648;23.368;2023-02-10T07:04:11;41.80;;;18.85;;
10945;SDS011;5525;42.648;23.368;2023-02-10T07:06:37;31.05;;;17.48;;
10945;SDS011;5525;42.648;23.368;2023-02-10T07:09:05;33.20;;;18.00;;
10945;SDS011;5525;42.648;23.368;2023-02-10T07:11:32;34.90;;;17.88;;
10945;SDS011;5525;42.648;23.368;2023-02-10T07:13:59;40.95;;;19.88;;
10945;SDS011;5525;42.648;23.368;2023-02-10T07:16:26;37.03;;;20.67;;
10945;SDS011;5525;42.648;23.368;2023-02-10T07:18:55;38.03;;;20.67;;
10945;SDS011;5525;42.648;23.368;2023-02-10T07:21:23;37.28;;;18.30;;
10945;SDS011;5525;42.648;23.368;2023-02-10T07:23:50;35.50;;;18.45;;
10945;SDS011;5525;42.648;23.368;2023-02-10T07:26:17;28.48;;;14.95;;
10945;SDS011;5525;42.648;23.368;2023-02-10T07:28:44;30.08;;;11.55;;
10945;SDS011;5525;42.648;23.368;2023-02-10T07:31:11;25.42;;;11.43;;
10945;SDS011;5525;42.648;23.368;2023-02-10T07:33:37;29.65;;;13.50;;
10945;SDS011;5525;42.648;23.368;2023-02-10T07:36:04;28.35;;;14.27;;
10945;SDS011;5525;42.648;23.368;2023-02-10T07:38:33;30.00;;;12.85;;
10945;SDS011;5525;42.648;23.368;2023-02-10T07:41:01;34.65;;;17.95;;
10945;SDS011;5525;42.648;23.368;2023-02-10T07:43:28;26.55;;;13.80;;
10945;SDS011;5525;42.648;23.368;2023-02-10T07:45:54;26.92;;;14.68;;
10945;SDS011;5525;42.648;23.368;2023-02-10T07:48:21;25.77;;;12.77;;
10945;SDS011;5525;42.648;23.368;2023-02-10T07:50:48;30.08;;;13.90;;
10945;SDS011;5525;42.648;23.368;2023-02-10T07:53:16;29.48;;;14.88;;
10945;SDS011;5525;42.648;23.368;2023-02-10T07:55:44;36.20;;;14.95;;
10945;SDS011;5525;42.648;23.368;2023-02-10T07:58:11;32.35;;;15.32;;
10945;SDS011;5525;42.648;23.368;2023-02-10T08:00:38;28.05;;;14.52;;
10945;SDS011;5525;42.648;23.368;2023-02-10T08:03:05;25.25;;;13.38;;
10945;SDS011;5525;42.648;23.368;2023-02-10T08:05:32;27.20;;;14.00;;
10945;SDS011;5525;42.648;23.368;2023-02-10T08:08:01;22.95;;;11.63;;
10945;SDS011;5525;42.648;23.368;2023-02-10T08:10:28;30.92;;;13.73;;
10945;SDS011;5525;42.648;23.368;2023-02-10T08:12:56;22.70;;;12.05;;
10945;SDS011;5525;42.648;23.368;2023-02-10T08:15:23;27.63;;;12.77;;
10945;SDS011;5525;42.648;23.368;2023-02-10T08:17:50;26.42;;;11.02;;
10945;SDS011;5525;42.648;23.368;2023-02-10T08:20:17;31.77;;;14.75;;
10945;SDS011;5525;42.648;23.368;2023-02-10T08:22:44;28.95;;;14.57;;
10945;SDS011;5525;42.648;23.368;2023-02-10T08:25:13;30.77;;;15.68;;
10945;SDS011;5525;42.648;23.368;2023-02-10T08:27:40;25.80;;;15.05;;
10945;SDS011;5525;42.648;23.368;2023-02-10T08:30:08;34.60;;;16.20;;
10945;SDS011;5525;42.648;23.368;2023-02-10T08:32:36;29.90;;;14.32;;
10945;SDS011;5525;42.648;23.368;2023-02-10T08:35:03;22.80;;;13.85;;
10945;SDS011;5525;42.648;23.368;2023-02-10T08:37:30;30.40;;;14.27;;
10945;SDS011;5525;42.648;23.368;2023-02-10T08:39:57;29.30;;;13.77;;
10945;SDS011;5525;42.648;23.368;2023-02-10T08:42:24;27.70;;;14.48;;
10945;SDS011;5525;42.648;23.368;2023-02-10T08:44:51;24.20;;;13.60;;
10945;SDS011;5525;42.648;23.368;2023-02-10T08:47:19;27.30;;;15.20;;
10945;SDS011;5525;42.648;23.368;2023-02-10T08:49:46;28.38;;;14.63;;
10945;SDS011;5525;42.648;23.368;2023-02-10T08:52:13;26.55;;;14.02;;
10945;SDS011;5525;42.648;23.368;2023-02-10T08:54:40;30.52;;;14.57;;
10945;SDS011;5525;42.648;23.368;2023-02-10T08:57:07;25.92;;;13.52;;
10945;SDS011;5525;42.648;23.368;2023-02-10T08:59:34;27.90;;;14.65;;
10945;SDS011;5525;42.648;23.368;2023-02-10T09:02:02;23.92;;;13.63;;
10945;SDS011;5525;42.648;23.368;2023-02-10T09:04:30;25.50;;;13.95;;
10945;SDS011;5525;42.648;23.368;2023-02-10T09:06:57;32.03;;;14.98;;
10945;SDS011;5525;42.648;23.368;2023-02-10T09:09:24;24.10;;;14.20;;
10945;SDS011;5525;42.648;23.368;2023-02-10T09:11:52;26.42;;;14.35;;
10945;SDS011;5525;42.648;23.368;2023-02-10T09:14:19;25.58;;;14.30;;
10945;SDS011;5525;42.648;23.368;2023-02-10T09:16:47;25.63;;;13.93;;
10945;SDS011;5525;42.648;23.368;2023-02-10T09:19:15;25.58;;;14.50;;
10945;SDS011;5525;42.648;23.368;2023-02-10T09:21:43;27.75;;;14.02;;
10945;SDS011;5525;42.648;23.368;2023-02-10T09:24:10;26.80;;;14.20;;
10945;SDS011;5525;42.648;23.368;2023-02-10T09:26:36;24.45;;;13.80;;
10945;SDS011;5525;42.648;23.368;2023-02-10T09:29:03;23.88;;;12.60;;
10945;SDS011;5525;42.648;23.368;2023-02-10T09:31:30;26.20;;;14.10;;
10945;SDS011;5525;42.648;23.368;2023-02-10T09:33:59;26.98;;;13.90;;
10945;SDS011;5525;42.648;23.368;2023-02-10T09:36:26;22.13;;;12.27;;
10945;SDS011;5525;42.648;23.368;2023-02-10T09:38:55;26.08;;;13.73;;
10945;SDS011;5525;42.648;23.368;2023-02-10T09:41:26;24.60;;;13.93;;
10945;SDS011;5525;42.648;23.368;2023-02-10T09:44:06;36.20;;;13.68;;
10945;SDS011;5525;42.648;23.368;2023-02-10T09:46:46;25.33;;;13.32;;
10945;SDS011;5525;42.648;23.368;2023-02-10T09:49:24;25.98;;;12.32;;
10945;SDS011;5525;42.648;23.368;2023-02-10T09:52:10;24.00;;;12.18;;
10945;SDS011;5525;42.648;23.368;2023-02-10T09:54:45;28.27;;;11.98;;
10945;SDS011;5525;42.648;23.368;2023-02-10T09:57:13;24.30;;;12.48;;
10945;SDS011;5525;42.648;23.368;2023-02-10T09:59:42;24.95;;;13.75;;
10945;SDS011;5525;42.648;23.368;2023-02-10T10:02:12;24.40;;;14.23;;
10945;SDS011;5525;42.648;23.368;2023-02-10T10:04:43;27.67;;;13.85;;
10945;SDS011;5525;42.648;23.368;2023-02-10T10:07:13;21.95;;;12.75;;
10945;SDS011;5525;42.648;23.368;2023-02-10T10:09:51;30.85;;;13.68;;
10945;SDS011;5525;42.648;23.368;2023-02-10T10:12:27;22.38;;;13.18;;
10945;SDS011;5525;42.648;23.368;2023-02-10T10:14:55;20.77;;;11.25;;
10945;SDS011;5525;42.648;23.368;2023-02-10T10:17:32;22.95;;;11.82;;
10945;SDS011;5525;42.648;23.368;2023-02-10T10:20:19;22.17;;;11.68;;
10945;SDS011;5525;42.648;23.368;2023-02-10T10:22:56;19.90;;;12.07;;
10945;SDS011;5525;42.648;23.368;2023-02-10T10:25:38;25.92;;;13.50;;
10945;SDS011;5525;42.648;23.368;2023-02-10T10:28:18;26.00;;;13.88;;
10945;SDS011;5525;42.648;23.368;2023-02-10T10:30:58;23.15;;;11.85;;
10945;SDS011;5525;42.648;23.368;2023-02-10T10:33:30;33.40;;;12.98;;
10945;SDS011;5525;42.648;23.368;2023-02-10T10:36:02;26.23;;;14.48;;
10945;SDS011;5525;42.648;23.368;2023-02-10T10:38:30;21.30;;;12.93;;
10945;SDS011;5525;42.648;23.368;2023-02-10T10:41:02;24.33;;;12.65;;
10945;SDS011;5525;42.648;23.368;2023-02-10T10:43:34;20.75;;;11.95;;
10945;SDS011;5525;42.648;23.368;2023-02-10T10:46:11;19.92;;;12.40;;
10945;SDS011;5525;42.648;23.368;2023-02-10T10:48:41;21.63;;;12.77;;
10945;SDS011;5525;42.648;23.368;2023-02-10T10:51:08;22.40;;;13.45;;
10945;SDS011;5525;42.648;23.368;2023-02-10T10:53:39;21.63;;;13.05;;
10945;SDS011;5525;42.648;23.368;2023-02-10T10:56:11;24.27;;;13.32;;
10945;SDS011;5525;42.648;23.368;2023-02-10T10:58:44;25.77;;;13.65;;
10945;SDS011;5525;42.648;23.368;2023-02-10T11:01:12;21.17;;;12.05;;
10945;SDS011;5525;42.648;23.368;2023-02-10T11:03:40;23.05;;;13.57;;
10945;SDS011;5525;42.648;23.368;2023-02-10T11:06:08;23.95;;;14.15;;
10945;SDS011;5525;42.648;23.368;2023-02-10T11:08:38;23.38;;;13.30;;
10945;SDS011;5525;42.648;23.368;2023-02-10T11:11:09;23.05;;;13.68;;
10945;SDS011;5525;42.648;23.368;2023-02-10T11:13:39;22.58;;;13.98;;
10945;SDS011;5525;42.648;23.368;2023-02-10T11:16:09;23.85;;;13.52;;
10945;SDS011;5525;42.648;23.368;2023-02-10T11:18:49;22.35;;;14.30;;
10945;SDS011;5525;42.648;23.368;2023-02-10T11:21:18;19.92;;;13.77;;
10945;SDS011;5525;42.648;23.368;2023-02-10T11:23:46;19.58;;;13.52;;
10945;SDS011;5525;42.648;23.368;2023-02-10T11:26:20;22.08;;;15.30;;
10945;SDS011;5525;42.648;23.368;2023-02-10T11:28:47;23.33;;;14.52;;
10945;SDS011;5525;42.648;23.368;2023-02-10T11:34:05;21.10;;;15.10;;
10945;SDS011;5525;42.648;23.368;2023-02-10T11:36:42;21.83;;;15.77;;
10945;SDS011;5525;42.648;23.368;2023-02-10T11:39:16;20.70;;;15.10;;
10945;SDS011;5525;42.648;23.368;2023-02-10T11:41:48;20.67;;;15.43;;
10945;SDS011;5525;42.648;23.368;2023-02-10T11:44:24;22.30;;;16.23;;
10945;SDS011;5525;42.648;23.368;2023-02-10T11:46:57;22.73;;;15.70;;
10945;SDS011;5525;42.648;23.368;2023-02-10T11:49:26;21.65;;;15.50;;
10945;SDS011;5525;42.648;23.368;2023-02-10T11:51:56;23.83;;;15.40;;
10945;SDS011;5525;42.648;23.368;2023-02-10T11:54:25;22.33;;;14.90;;
10945;SDS011;5525;42.648;23.368;2023-02-10T11:56:56;21.67;;;14.75;;
10945;SDS011;5525;42.648;23.368;2023-02-10T11:59:49;20.58;;;14.10;;
10945;SDS011;5525;42.648;23.368;2023-02-10T12:02:25;23.17;;;14.98;;
10945;SDS011;5525;42.648;23.368;2023-02-10T12:05:03;24.60;;;15.50;;
10945;SDS011;5525;42.648;23.368;2023-02-10T12:07:39;23.20;;;15.30;;
10945;SDS011;5525;42.648;23.368;2023-02-10T12:10:13;22.05;;;15.02;;
10945;SDS011;5525;42.648;23.368;2023-02-10T12:12:48;22.92;;;15.23;;
10945;SDS011;5525;42.648;23.368;2023-02-10T12:15:23;22.95;;;15.23;;
10945;SDS011;5525;42.648;23.368;2023-02-10T12:18:01;23.95;;;16.00;;
10945;SDS011;5525;42.648;23.368;2023-02-10T12:20:42;23.65;;;16.42;;
10945;SDS011;5525;42.648;23.368;2023-02-10T12:26:18;22.35;;;15.95;;
10945;SDS011;5525;42.648;23.368;2023-02-10T12:28:56;29.08;;;17.27;;
10945;SDS011;5525;42.648;23.368;2023-02-10T12:31:36;29.83;;;16.88;;
10945;SDS011;5525;42.648;23.368;2023-02-10T12:37:09;25.33;;;16.20;;
10945;SDS011;5525;42.648;23.368;2023-02-10T12:39:46;27.55;;;16.02;;
10945;SDS011;5525;42.648;23.368;2023-02-10T12:42:28;22.95;;;16.95;;
10945;SDS011;5525;42.648;23.368;2023-02-10T12:45:11;29.08;;;16.15;;
10945;SDS011;5525;42.648;23.368;2023-02-10T12:47:44;26.85;;;17.00;;
10945;SDS011;5525;42.648;23.368;2023-02-10T12:53:16;25.63;;;16.23;;
10945;SDS011;5525;42.648;23.368;2023-02-10T12:55:51;25.58;;;15.70;;
10945;SDS011;5525;42.648;23.368;2023-02-10T12:58:25;24.50;;;16.02;;
10945;SDS011;5525;42.648;23.368;2023-02-10T13:01:04;32.88;;;17.15;;
10945;SDS011;5525;42.648;23.368;2023-02-10T13:03:37;23.42;;;15.77;;
10945;SDS011;5525;42.648;23.368;2023-02-10T13:06:16;22.90;;;15.70;;
10945;SDS011;5525;42.648;23.368;2023-02-10T13:08:48;23.98;;;14.98;;
10945;SDS011;5525;42.648;23.368;2023-02-10T13:11:20;24.92;;;16.17;;
10945;SDS011;5525;42.648;23.368;2023-02-10T13:13:53;26.85;;;17.27;;
10945;SDS011;5525;42.648;23.368;2023-02-10T13:16:23;23.55;;;16.33;;
10945;SDS011;5525;42.648;23.368;2023-02-10T13:18:52;28.90;;;16.70;;
10945;SDS011;5525;42.648;23.368;2023-02-10T13:21:24;23.25;;;15.35;;
10945;SDS011;5525;42.648;23.368;2023-02-10T13:23:56;22.42;;;15.95;;
10945;SDS011;5525;42.648;23.368;2023-02-10T13:26:36;23.05;;;15.27;;
10945;SDS011;5525;42.648;23.368;2023-02-10T13:29:15;24.08;;;15.27;;
10945;SDS011;5525;42.648;23.368;2023-02-10T13:31:55;22.67;;;15.63;;
10945;SDS011;5525;42.648;23.368;2023-02-10T13:34:31;28.88;;;15.95;;
10945;SDS011;5525;42.648;23.368;2023-02-10T13:37:03;24.92;;;15.43;;
10945;SDS011;5525;42.648;23.368;2023-02-10T13:39:32;23.92;;;16.13;;
10945;SDS011;5525;42.648;23.368;2023-02-10T13:42:06;23.92;;;15.27;;
10945;SDS011;5525;42.648;23.368;2023-02-10T13:44:40;20.85;;;14.00;;
10945;SDS011;5525;42.648;23.368;2023-02-10T13:47:19;21.98;;;14.32;;
10945;SDS011;5525;42.648;23.368;2023-02-10T13:49:53;23.92;;;14.40;;
10945;SDS011;5525;42.648;23.368;2023-02-10T13:52:26;20.50;;;13.88;;
10945;SDS011;5525;42.648;23.368;2023-02-10T13:54:55;25.38;;;15.25;;
10945;SDS011;5525;42.648;23.368;2023-02-10T13:57:24;27.20;;;15.13;;
10945;SDS011;5525;42.648;23.368;2023-02-10T13:59:52;25.20;;;14.80;;
10945;SDS011;5525;42.648;23.368;2023-02-10T14:02:21;28.58;;;15.70;;
10945;SDS011;5525;42.648;23.368;2023-02-10T14:04:50;24.15;;;14.30;;
10945;SDS011;5525;42.648;23.368;2023-02-10T14:07:31;30.05;;;16.05;;
10945;SDS011;5525;42.648;23.368;2023-02-10T14:10:00;27.98;;;14.80;;
10945;SDS011;5525;42.648;23.368;2023-02-10T14:12:30;25.02;;;15.02;;
10945;SDS011;5525;42.648;23.368;2023-02-10T14:15:12;25.58;;;14.27;;
10945;SDS011;5525;42.648;23.368;2023-02-10T14:17:53;27.85;;;16.25;;
10945;SDS011;5525;42.648;23.368;2023-02-10T14:20:27;31.75;;;21.08;;
10945;SDS011;5525;42.648;23.368;2023-02-10T14:22:56;30.30;;;15.82;;
10945;SDS011;5525;42.648;23.368;2023-02-10T14:25:31;28.90;;;15.45;;
10945;SDS011;5525;42.648;23.368;2023-02-10T14:28:01;30.33;;;16.73;;
10945;SDS011;5525;42.648;23.368;2023-02-10T14:30:36;27.02;;;15.80;;
10945;SDS011;5525;42.648;23.368;2023-02-10T14:33:12;29.20;;;15.55;;
10945;SDS011;5525;42.648;23.368;2023-02-10T14:35:48;27.30;;;15.25;;
10945;SDS011;5525;42.648;23.368;2023-02-10T14:38:19;30.60;;;14.85;;
10945;SDS011;5525;42.648;23.368;2023-02-10T14:40:48;32.67;;;16.60;;
10945;SDS011;5525;42.648;23.368;2023-02-10T14:43:18;33.58;;;17.33;;
10945;SDS011;5525;42.648;23.368;2023-02-10T14:45:52;32.45;;;17.65;;
10945;SDS011;5525;42.648;23.368;2023-02-10T14:48:21;29.33;;;17.55;;
10945;SDS011;5525;42.648;23.368;2023-02-10T14:51:05;37.45;;;18.25;;
10945;SDS011;5525;42.648;23.368;2023-02-10T14:53:35;31.15;;;17.23;;